sensor_id;sensor_type;location;lat;lon;timestamp;temperature;humidity
2657;DHT22;1338;48.176;11.792;2022-10-16T00:01:05;11.10;1.00
2657;DHT22;1338;48.176;11.792;2022-10-16T00:03:33;11.20;1.00
2657;DHT22;1338;48.176;11.792;2022-10-16T00:06:01;11.30;1.00
2657;DHT22;1338;48.176;11.792;2022-10-16T00:08:29;11.50;99.90
2657;DHT22;1338;48.176;11.792;2022-10-16T00:11:02;11.40;99.90
2657;DHT22;1338;48.176;11.792;2022-10-16T00:13:33;11.40;99.90
2657;DHT22;1338;48.176;11.792;2022-10-16T00:16:03;11.40;99.90
2657;DHT22;1338;48.176;11.792;2022-10-16T00:18:31;11.40;99.90
2657;DHT22;1338;48.176;11.792;2022-10-16T00:21:02;11.60;99.90
2657;DHT22;1338;48.176;11.792;2022-10-16T00:23:30;11.60;93.80
2657;DHT22;1338;48.176;11.792;2022-10-16T00:26:01;11.50;70.90
2657;DHT22;1338;48.176;11.792;2022-10-16T00:28:29;11.30;99.90
2657;DHT22;1338;48.176;11.792;2022-10-16T00:31:03;11.30;1.00
2657;DHT22;1338;48.176;11.792;2022-10-16T00:33:31;11.30;1.00
2657;DHT22;1338;48.176;11.792;2022-10-16T00:36:00;11.10;99.90
2657;DHT22;1338;48.176;11.792;2022-10-16T00:38:28;11.40;1.00
2657;DHT22;1338;48.176;11.792;2022-10-16T00:40:57;11.40;99.90
2657;DHT22;1338;48.176;11.792;2022-10-16T00:43:39;11.40;99.90
2657;DHT22;1338;48.176;11.792;2022-10-16T00:46:15;11.60;99.90
2657;DHT22;1338;48.176;11.792;2022-10-16T00:48:48;11.40;33.50
2657;DHT22;1338;48.176;11.792;2022-10-16T00:51:19;11.50;83.10
2657;DHT22;1338;48.176;11.792;2022-10-16T00:53:50;11.40;99.90
2657;DHT22;1338;48.176;11.792;2022-10-16T00:56:18;11.50;99.90
2657;DHT22;1338;48.176;11.792;2022-10-16T00:58:46;11.40;97.00
2657;DHT22;1338;48.176;11.792;2022-10-16T01:01:16;11.40;99.90
2657;DHT22;1338;48.176;11.792;2022-10-16T01:03:44;11.40;99.90
2657;DHT22;1338;48.176;11.792;2022-10-16T01:06:21;11.30;99.90
2657;DHT22;1338;48.176;11.792;2022-10-16T01:09:07;11.20;99.90
2657;DHT22;1338;48.176;11.792;2022-10-16T01:11:44;11.10;99.90
2657;DHT22;1338;48.176;11.792;2022-10-16T01:14:19;11.10;99.90
2657;DHT22;1338;48.176;11.792;2022-10-16T01:16:55;11.00;99.90
2657;DHT22;1338;48.176;11.792;2022-10-16T01:19:38;11.00;99.90
2657;DHT22;1338;48.176;11.792;2022-10-16T01:22:09;10.90;1.00
2657;DHT22;1338;48.176;11.792;2022-10-16T01:24:40;10.90;1.00
2657;DHT22;1338;48.176;11.792;2022-10-16T01:27:13;10.80;1.00
2657;DHT22;1338;48.176;11.792;2022-10-16T01:29:50;10.80;1.00
2657;DHT22;1338;48.176;11.792;2022-10-16T01:32:26;10.70;1.00
2657;DHT22;1338;48.176;11.792;2022-10-16T01:34:59;10.70;1.00
2657;DHT22;1338;48.176;11.792;2022-10-16T01:37:35;10.60;1.00
2657;DHT22;1338;48.176;11.792;2022-10-16T01:40:07;10.50;1.00
2657;DHT22;1338;48.176;11.792;2022-10-16T01:42:40;10.50;1.00
2657;DHT22;1338;48.176;11.792;2022-10-16T01:45:12;10.60;1.00
2657;DHT22;1338;48.176;11.792;2022-10-16T01:47:41;10.60;1.00
2657;DHT22;1338;48.176;11.792;2022-10-16T01:50:12;10.70;1.00
2657;DHT22;1338;48.176;11.792;2022-10-16T01:52:45;10.80;1.00
2657;DHT22;1338;48.176;11.792;2022-10-16T01:55:17;11.00;1.00
2657;DHT22;1338;48.176;11.792;2022-10-16T01:57:49;10.90;99.90
2657;DHT22;1338;48.176;11.792;2022-10-16T02:00:20;11.00;99.90
2657;DHT22;1338;48.176;11.792;2022-10-16T02:02:53;11.20;99.70
2657;DHT22;1338;48.176;11.792;2022-10-16T02:05:26;11.30;1.00
2657;DHT22;1338;48.176;11.792;2022-10-16T02:07:56;11.30;1.00
2657;DHT22;1338;48.176;11.792;2022-10-16T02:10:29;11.20;1.00
2657;DHT22;1338;48.176;11.792;2022-10-16T02:13:03;11.40;22.20
2657;DHT22;1338;48.176;11.792;2022-10-16T02:15:32;11.40;1.00
2657;DHT22;1338;48.176;11.792;2022-10-16T02:18:01;11.40;1.00
2657;DHT22;1338;48.176;11.792;2022-10-16T02:20:34;11.20;1.00
2657;DHT22;1338;48.176;11.792;2022-10-16T02:23:03;11.30;1.00
2657;DHT22;1338;48.176;11.792;2022-10-16T02:25:35;11.20;1.00
2657;DHT22;1338;48.176;11.792;2022-10-16T02:28:09;11.30;1.00
2657;DHT22;1338;48.176;11.792;2022-10-16T02:30:43;11.20;1.00
2657;DHT22;1338;48.176;11.792;2022-10-16T02:33:14;11.10;1.00
2657;DHT22;1338;48.176;11.792;2022-10-16T02:35:45;11.10;1.00
2657;DHT22;1338;48.176;11.792;2022-10-16T02:38:15;11.20;1.00
2657;DHT22;1338;48.176;11.792;2022-10-16T02:40:44;11.20;1.00
2657;DHT22;1338;48.176;11.792;2022-10-16T02:43:14;11.30;1.00
2657;DHT22;1338;48.176;11.792;2022-10-16T02:45:42;11.30;1.00
2657;DHT22;1338;48.176;11.792;2022-10-16T02:48:10;11.20;1.00
2657;DHT22;1338;48.176;11.792;2022-10-16T02:50:38;11.10;1.00
2657;DHT22;1338;48.176;11.792;2022-10-16T02:53:07;11.00;1.00
2657;DHT22;1338;48.176;11.792;2022-10-16T02:55:35;10.90;1.00
2657;DHT22;1338;48.176;11.792;2022-10-16T02:58:03;10.70;56.90
2657;DHT22;1338;48.176;11.792;2022-10-16T03:00:32;10.70;99.90
2657;DHT22;1338;48.176;11.792;2022-10-16T03:03:00;10.60;99.90
2657;DHT22;1338;48.176;11.792;2022-10-16T03:05:28;10.70;99.90
2657;DHT22;1338;48.176;11.792;2022-10-16T03:07:56;10.60;99.90
2657;DHT22;1338;48.176;11.792;2022-10-16T03:10:27;10.50;1.00
2657;DHT22;1338;48.176;11.792;2022-10-16T03:12:55;10.40;1.00
2657;DHT22;1338;48.176;11.792;2022-10-16T03:15:23;10.30;1.00
2657;DHT22;1338;48.176;11.792;2022-10-16T03:17:53;10.30;1.00
2657;DHT22;1338;48.176;11.792;2022-10-16T03:20:22;10.30;1.00
2657;DHT22;1338;48.176;11.792;2022-10-16T03:22:50;10.30;1.00
2657;DHT22;1338;48.176;11.792;2022-10-16T03:25:18;10.20;1.00
2657;DHT22;1338;48.176;11.792;2022-10-16T03:27:46;10.10;1.00
2657;DHT22;1338;48.176;11.792;2022-10-16T03:30:14;10.10;1.00
2657;DHT22;1338;48.176;11.792;2022-10-16T03:32:44;10.10;1.00
2657;DHT22;1338;48.176;11.792;2022-10-16T03:35:13;10.00;1.00
2657;DHT22;1338;48.176;11.792;2022-10-16T03:37:41;10.00;1.00
2657;DHT22;1338;48.176;11.792;2022-10-16T03:40:10;9.80;1.00
2657;DHT22;1338;48.176;11.792;2022-10-16T03:42:38;9.70;1.00
2657;DHT22;1338;48.176;11.792;2022-10-16T03:45:07;9.70;1.00
2657;DHT22;1338;48.176;11.792;2022-10-16T03:47:35;9.80;1.00
2657;DHT22;1338;48.176;11.792;2022-10-16T03:50:04;9.90;9.20
2657;DHT22;1338;48.176;11.792;2022-10-16T03:52:34;10.00;1.00
2657;DHT22;1338;48.176;11.792;2022-10-16T03:55:02;9.90;1.00
2657;DHT22;1338;48.176;11.792;2022-10-16T03:57:30;9.90;1.00
2657;DHT22;1338;48.176;11.792;2022-10-16T03:59:58;10.00;1.00
2657;DHT22;1338;48.176;11.792;2022-10-16T04:02:26;10.00;1.00
2657;DHT22;1338;48.176;11.792;2022-10-16T04:04:54;10.10;1.00
2657;DHT22;1338;48.176;11.792;2022-10-16T04:07:22;10.00;1.00
2657;DHT22;1338;48.176;11.792;2022-10-16T04:09:52;10.10;1.00
2657;DHT22;1338;48.176;11.792;2022-10-16T04:12:20;10.20;1.00
2657;DHT22;1338;48.176;11.792;2022-10-16T04:14:48;10.40;1.00
2657;DHT22;1338;48.176;11.792;2022-10-16T04:17:17;10.40;1.00
2657;DHT22;1338;48.176;11.792;2022-10-16T04:19:45;10.40;1.00
2657;DHT22;1338;48.176;11.792;2022-10-16T04:22:13;10.50;1.00
2657;DHT22;1338;48.176;11.792;2022-10-16T04:24:41;10.60;99.90
2657;DHT22;1338;48.176;11.792;2022-10-16T04:27:10;10.60;99.90
2657;DHT22;1338;48.176;11.792;2022-10-16T04:29:38;10.60;99.90
2657;DHT22;1338;48.176;11.792;2022-10-16T04:32:07;10.60;99.90
2657;DHT22;1338;48.176;11.792;2022-10-16T04:34:36;10.70;99.90
2657;DHT22;1338;48.176;11.792;2022-10-16T04:37:07;10.60;99.90
2657;DHT22;1338;48.176;11.792;2022-10-16T04:39:35;10.60;99.90
2657;DHT22;1338;48.176;11.792;2022-10-16T04:42:03;10.60;99.90
2657;DHT22;1338;48.176;11.792;2022-10-16T04:44:32;10.60;99.90
2657;DHT22;1338;48.176;11.792;2022-10-16T04:47:01;10.90;99.90
2657;DHT22;1338;48.176;11.792;2022-10-16T04:49:29;11.20;1.00
2657;DHT22;1338;48.176;11.792;2022-10-16T04:51:57;11.40;1.00
2657;DHT22;1338;48.176;11.792;2022-10-16T04:54:25;11.40;1.00
2657;DHT22;1338;48.176;11.792;2022-10-16T04:56:53;11.30;1.00
2657;DHT22;1338;48.176;11.792;2022-10-16T04:59:21;11.30;1.00
2657;DHT22;1338;48.176;11.792;2022-10-16T05:01:51;11.30;1.00
2657;DHT22;1338;48.176;11.792;2022-10-16T05:04:19;11.20;1.00
2657;DHT22;1338;48.176;11.792;2022-10-16T05:06:48;11.20;1.00
2657;DHT22;1338;48.176;11.792;2022-10-16T05:09:16;11.10;70.50
2657;DHT22;1338;48.176;11.792;2022-10-16T05:11:44;11.10;53.80
2657;DHT22;1338;48.176;11.792;2022-10-16T05:14:12;11.10;87.90
2657;DHT22;1338;48.176;11.792;2022-10-16T05:16:40;11.10;99.90
2657;DHT22;1338;48.176;11.792;2022-10-16T05:19:09;11.00;99.90
2657;DHT22;1338;48.176;11.792;2022-10-16T05:21:54;11.00;99.90
2657;DHT22;1338;48.176;11.792;2022-10-16T05:24:22;11.00;99.90
2657;DHT22;1338;48.176;11.792;2022-10-16T05:26:50;11.00;99.90
2657;DHT22;1338;48.176;11.792;2022-10-16T05:29:19;11.10;99.90
2657;DHT22;1338;48.176;11.792;2022-10-16T05:31:50;11.00;99.90
2657;DHT22;1338;48.176;11.792;2022-10-16T05:34:20;11.00;99.90
2657;DHT22;1338;48.176;11.792;2022-10-16T05:36:48;11.00;99.90
2657;DHT22;1338;48.176;11.792;2022-10-16T05:39:16;11.10;99.90
2657;DHT22;1338;48.176;11.792;2022-10-16T05:41:44;11.10;99.90
2657;DHT22;1338;48.176;11.792;2022-10-16T05:44:12;11.10;99.90
2657;DHT22;1338;48.176;11.792;2022-10-16T05:46:40;11.00;99.90
2657;DHT22;1338;48.176;11.792;2022-10-16T05:49:08;10.90;99.90
2657;DHT22;1338;48.176;11.792;2022-10-16T05:51:38;10.90;99.90
2657;DHT22;1338;48.176;11.792;2022-10-16T05:54:06;11.00;99.90
2657;DHT22;1338;48.176;11.792;2022-10-16T05:56:34;11.00;99.90
2657;DHT22;1338;48.176;11.792;2022-10-16T05:59:03;11.00;99.90
2657;DHT22;1338;48.176;11.792;2022-10-16T06:01:32;11.10;99.90
2657;DHT22;1338;48.176;11.792;2022-10-16T06:04:00;11.10;99.90
2657;DHT22;1338;48.176;11.792;2022-10-16T06:06:28;11.10;99.90
2657;DHT22;1338;48.176;11.792;2022-10-16T06:08:59;11.10;99.90
2657;DHT22;1338;48.176;11.792;2022-10-16T06:11:29;11.10;99.90
2657;DHT22;1338;48.176;11.792;2022-10-16T06:13:59;11.10;99.90
2657;DHT22;1338;48.176;11.792;2022-10-16T06:16:28;11.20;99.90
2657;DHT22;1338;48.176;11.792;2022-10-16T06:18:57;11.60;1.00
2657;DHT22;1338;48.176;11.792;2022-10-16T06:21:27;11.30;1.00
2657;DHT22;1338;48.176;11.792;2022-10-16T06:23:56;11.60;1.00
2657;DHT22;1338;48.176;11.792;2022-10-16T06:26:28;11.70;1.00
2657;DHT22;1338;48.176;11.792;2022-10-16T06:28:58;11.90;1.00
2657;DHT22;1338;48.176;11.792;2022-10-16T06:31:28;11.80;1.00
2657;DHT22;1338;48.176;11.792;2022-10-16T06:33:58;11.90;1.00
2657;DHT22;1338;48.176;11.792;2022-10-16T06:36:26;11.90;1.00
2657;DHT22;1338;48.176;11.792;2022-10-16T06:38:55;11.90;1.00
2657;DHT22;1338;48.176;11.792;2022-10-16T06:41:25;11.80;1.00
2657;DHT22;1338;48.176;11.792;2022-10-16T06:43:53;11.80;1.00
2657;DHT22;1338;48.176;11.792;2022-10-16T06:46:23;11.70;1.00
2657;DHT22;1338;48.176;11.792;2022-10-16T06:48:52;11.70;1.00
2657;DHT22;1338;48.176;11.792;2022-10-16T06:51:22;11.70;1.00
2657;DHT22;1338;48.176;11.792;2022-10-16T06:53:51;11.70;1.00
2657;DHT22;1338;48.176;11.792;2022-10-16T06:56:32;11.70;1.00
2657;DHT22;1338;48.176;11.792;2022-10-16T06:59:00;11.70;1.00
2657;DHT22;1338;48.176;11.792;2022-10-16T07:01:28;11.60;1.00
2657;DHT22;1338;48.176;11.792;2022-10-16T07:03:57;11.60;1.00
2657;DHT22;1338;48.176;11.792;2022-10-16T07:06:26;11.60;1.00
2657;DHT22;1338;48.176;11.792;2022-10-16T07:08:55;11.60;1.00
2657;DHT22;1338;48.176;11.792;2022-10-16T07:11:23;11.60;1.00
2657;DHT22;1338;48.176;11.792;2022-10-16T07:13:53;11.70;1.00
2657;DHT22;1338;48.176;11.792;2022-10-16T07:16:23;11.70;1.00
2657;DHT22;1338;48.176;11.792;2022-10-16T07:18:53;11.80;1.00
2657;DHT22;1338;48.176;11.792;2022-10-16T07:21:25;11.90;1.00
2657;DHT22;1338;48.176;11.792;2022-10-16T07:23:56;11.90;1.00
2657;DHT22;1338;48.176;11.792;2022-10-16T07:26:26;12.10;1.00
2657;DHT22;1338;48.176;11.792;2022-10-16T07:28:55;12.10;1.00
2657;DHT22;1338;48.176;11.792;2022-10-16T07:31:24;12.20;1.00
2657;DHT22;1338;48.176;11.792;2022-10-16T07:33:53;12.40;1.00
2657;DHT22;1338;48.176;11.792;2022-10-16T07:36:21;12.50;1.00
2657;DHT22;1338;48.176;11.792;2022-10-16T07:38:49;12.50;1.00
2657;DHT22;1338;48.176;11.792;2022-10-16T07:41:23;12.50;1.00
2657;DHT22;1338;48.176;11.792;2022-10-16T07:43:52;12.70;1.00
2657;DHT22;1338;48.176;11.792;2022-10-16T07:46:23;12.80;1.00
2657;DHT22;1338;48.176;11.792;2022-10-16T07:48:51;12.30;99.90
2657;DHT22;1338;48.176;11.792;2022-10-16T07:51:23;13.00;99.90
2657;DHT22;1338;48.176;11.792;2022-10-16T07:53:52;13.20;99.90
2657;DHT22;1338;48.176;11.792;2022-10-16T07:56:21;13.40;99.90
2657;DHT22;1338;48.176;11.792;2022-10-16T07:58:50;13.60;99.90
2657;DHT22;1338;48.176;11.792;2022-10-16T08:01:19;13.70;99.90
2657;DHT22;1338;48.176;11.792;2022-10-16T08:03:50;13.90;99.90
2657;DHT22;1338;48.176;11.792;2022-10-16T08:06:20;14.00;99.90
2657;DHT22;1338;48.176;11.792;2022-10-16T08:08:54;14.20;99.90
2657;DHT22;1338;48.176;11.792;2022-10-16T08:11:22;14.20;99.90
2657;DHT22;1338;48.176;11.792;2022-10-16T08:13:51;14.20;85.50
2657;DHT22;1338;48.176;11.792;2022-10-16T08:16:19;14.10;42.90
2657;DHT22;1338;48.176;11.792;2022-10-16T08:18:49;14.20;99.90
2657;DHT22;1338;48.176;11.792;2022-10-16T08:21:20;14.70;99.90
2657;DHT22;1338;48.176;11.792;2022-10-16T08:23:50;14.70;99.90
2657;DHT22;1338;48.176;11.792;2022-10-16T08:26:25;14.90;1.00
2657;DHT22;1338;48.176;11.792;2022-10-16T08:28:53;14.80;1.00
2657;DHT22;1338;48.176;11.792;2022-10-16T08:31:22;14.90;1.00
2657;DHT22;1338;48.176;11.792;2022-10-16T08:33:51;15.40;1.00
2657;DHT22;1338;48.176;11.792;2022-10-16T08:36:19;15.40;1.00
2657;DHT22;1338;48.176;11.792;2022-10-16T08:38:49;15.20;1.00
2657;DHT22;1338;48.176;11.792;2022-10-16T08:41:51;15.50;1.00
2657;DHT22;1338;48.176;11.792;2022-10-16T08:47:20;15.90;1.00
2657;DHT22;1338;48.176;11.792;2022-10-16T08:49:56;15.60;1.00
2657;DHT22;1338;48.176;11.792;2022-10-16T08:52:28;15.80;1.00
2657;DHT22;1338;48.176;11.792;2022-10-16T08:54:57;15.30;1.00
2657;DHT22;1338;48.176;11.792;2022-10-16T08:57:26;15.70;1.00
2657;DHT22;1338;48.176;11.792;2022-10-16T08:59:58;16.50;1.00
2657;DHT22;1338;48.176;11.792;2022-10-16T09:02:32;17.20;1.00
2657;DHT22;1338;48.176;11.792;2022-10-16T09:05:23;17.80;1.00
2657;DHT22;1338;48.176;11.792;2022-10-16T09:07:59;17.10;1.00
2657;DHT22;1338;48.176;11.792;2022-10-16T09:10:39;15.90;1.00
2657;DHT22;1338;48.176;11.792;2022-10-16T09:13:17;16.20;1.00
2657;DHT22;1338;48.176;11.792;2022-10-16T09:15:51;16.90;1.00
2657;DHT22;1338;48.176;11.792;2022-10-16T09:18:24;16.50;1.00
2657;DHT22;1338;48.176;11.792;2022-10-16T09:21:05;18.30;1.00
2657;DHT22;1338;48.176;11.792;2022-10-16T09:23:36;18.40;1.00
2657;DHT22;1338;48.176;11.792;2022-10-16T09:26:05;17.50;1.00
2657;DHT22;1338;48.176;11.792;2022-10-16T09:28:37;18.40;1.00
2657;DHT22;1338;48.176;11.792;2022-10-16T09:31:05;18.10;1.00
2657;DHT22;1338;48.176;11.792;2022-10-16T09:33:39;18.20;1.00
2657;DHT22;1338;48.176;11.792;2022-10-16T09:36:10;16.80;1.00
2657;DHT22;1338;48.176;11.792;2022-10-16T09:38:40;16.80;1.00
2657;DHT22;1338;48.176;11.792;2022-10-16T09:41:15;18.20;1.00
2657;DHT22;1338;48.176;11.792;2022-10-16T09:43:49;18.40;1.00
2657;DHT22;1338;48.176;11.792;2022-10-16T09:46:25;19.30;1.00
2657;DHT22;1338;48.176;11.792;2022-10-16T09:48:56;19.90;1.00
2657;DHT22;1338;48.176;11.792;2022-10-16T09:51:27;20.00;1.00
2657;DHT22;1338;48.176;11.792;2022-10-16T09:53:58;19.40;1.00
2657;DHT22;1338;48.176;11.792;2022-10-16T09:56:28;18.70;1.00
2657;DHT22;1338;48.176;11.792;2022-10-16T09:58:59;19.40;1.00
2657;DHT22;1338;48.176;11.792;2022-10-16T10:01:31;18.70;1.00
2657;DHT22;1338;48.176;11.792;2022-10-16T10:04:03;19.80;1.00
2657;DHT22;1338;48.176;11.792;2022-10-16T10:06:34;20.00;1.00
2657;DHT22;1338;48.176;11.792;2022-10-16T10:09:17;20.70;1.00
2657;DHT22;1338;48.176;11.792;2022-10-16T10:11:50;19.40;1.00
2657;DHT22;1338;48.176;11.792;2022-10-16T10:14:24;19.30;1.00
2657;DHT22;1338;48.176;11.792;2022-10-16T10:17:07;20.40;1.00
2657;DHT22;1338;48.176;11.792;2022-10-16T10:19:38;19.80;1.00
2657;DHT22;1338;48.176;11.792;2022-10-16T10:22:26;19.10;1.00
2657;DHT22;1338;48.176;11.792;2022-10-16T10:28:39;19.10;1.00
2657;DHT22;1338;48.176;11.792;2022-10-16T10:31:16;20.70;1.00
2657;DHT22;1338;48.176;11.792;2022-10-16T10:33:52;19.70;1.00
2657;DHT22;1338;48.176;11.792;2022-10-16T10:36:28;18.90;1.00
2657;DHT22;1338;48.176;11.792;2022-10-16T10:39:00;19.80;1.00
2657;DHT22;1338;48.176;11.792;2022-10-16T10:41:53;21.20;1.00
2657;DHT22;1338;48.176;11.792;2022-10-16T10:44:35;21.30;1.00
2657;DHT22;1338;48.176;11.792;2022-10-16T10:47:14;20.90;1.00
2657;DHT22;1338;48.176;11.792;2022-10-16T10:49:54;20.30;1.00
2657;DHT22;1338;48.176;11.792;2022-10-16T10:52:38;22.00;1.00
2657;DHT22;1338;48.176;11.792;2022-10-16T10:55:17;21.30;1.00
2657;DHT22;1338;48.176;11.792;2022-10-16T10:58:08;22.40;1.00
2657;DHT22;1338;48.176;11.792;2022-10-16T11:00:51;21.20;1.00
2657;DHT22;1338;48.176;11.792;2022-10-16T11:03:35;21.00;1.00
2657;DHT22;1338;48.176;11.792;2022-10-16T11:06:11;21.80;1.00
2657;DHT22;1338;48.176;11.792;2022-10-16T11:08:46;23.20;1.00
2657;DHT22;1338;48.176;11.792;2022-10-16T11:11:23;21.60;1.00
2657;DHT22;1338;48.176;11.792;2022-10-16T11:13:57;22.30;1.00
2657;DHT22;1338;48.176;11.792;2022-10-16T11:16:28;23.00;1.00
2657;DHT22;1338;48.176;11.792;2022-10-16T11:19:02;23.00;1.00
2657;DHT22;1338;48.176;11.792;2022-10-16T11:21:38;23.40;1.00
2657;DHT22;1338;48.176;11.792;2022-10-16T11:24:16;23.60;1.00
2657;DHT22;1338;48.176;11.792;2022-10-16T11:26:50;23.90;1.00
2657;DHT22;1338;48.176;11.792;2022-10-16T11:29:23;23.50;1.00
2657;DHT22;1338;48.176;11.792;2022-10-16T11:31:54;23.40;1.00
2657;DHT22;1338;48.176;11.792;2022-10-16T11:34:28;22.70;1.00
2657;DHT22;1338;48.176;11.792;2022-10-16T11:37:08;24.00;1.00
2657;DHT22;1338;48.176;11.792;2022-10-16T11:39:38;23.70;1.00
2657;DHT22;1338;48.176;11.792;2022-10-16T11:42:13;23.90;1.00
2657;DHT22;1338;48.176;11.792;2022-10-16T11:44:53;23.70;1.00
2657;DHT22;1338;48.176;11.792;2022-10-16T11:47:30;24.10;1.00
2657;DHT22;1338;48.176;11.792;2022-10-16T11:50:23;24.50;99.90
2657;DHT22;1338;48.176;11.792;2022-10-16T11:53:00;23.90;99.90
2657;DHT22;1338;48.176;11.792;2022-10-16T11:55:32;24.20;1.00
2657;DHT22;1338;48.176;11.792;2022-10-16T11:58:05;24.20;99.90
2657;DHT22;1338;48.176;11.792;2022-10-16T12:00:42;24.10;99.90
2657;DHT22;1338;48.176;11.792;2022-10-16T12:03:19;24.20;1.00
2657;DHT22;1338;48.176;11.792;2022-10-16T12:06:22;24.40;99.90
2657;DHT22;1338;48.176;11.792;2022-10-16T12:08:51;24.70;99.90
2657;DHT22;1338;48.176;11.792;2022-10-16T12:11:30;24.80;99.90
2657;DHT22;1338;48.176;11.792;2022-10-16T12:14:33;25.10;1.00
2657;DHT22;1338;48.176;11.792;2022-10-16T12:17:26;24.60;99.90
2657;DHT22;1338;48.176;11.792;2022-10-16T12:19:59;24.40;99.90
2657;DHT22;1338;48.176;11.792;2022-10-16T12:22:29;24.70;99.90
2657;DHT22;1338;48.176;11.792;2022-10-16T12:25:01;25.10;99.90
2657;DHT22;1338;48.176;11.792;2022-10-16T12:27:30;25.20;99.90
2657;DHT22;1338;48.176;11.792;2022-10-16T12:30:02;25.40;99.90
2657;DHT22;1338;48.176;11.792;2022-10-16T12:32:34;24.70;99.90
2657;DHT22;1338;48.176;11.792;2022-10-16T12:35:21;25.60;99.90
2657;DHT22;1338;48.176;11.792;2022-10-16T12:37:50;25.40;99.90
2657;DHT22;1338;48.176;11.792;2022-10-16T12:40:27;25.40;99.90
2657;DHT22;1338;48.176;11.792;2022-10-16T12:42:56;25.80;99.90
2657;DHT22;1338;48.176;11.792;2022-10-16T12:45:29;25.20;99.90
2657;DHT22;1338;48.176;11.792;2022-10-16T12:48:00;23.80;99.90
2657;DHT22;1338;48.176;11.792;2022-10-16T12:50:34;24.70;99.90
2657;DHT22;1338;48.176;11.792;2022-10-16T12:53:16;26.70;99.90
2657;DHT22;1338;48.176;11.792;2022-10-16T12:55:52;27.30;99.90
2657;DHT22;1338;48.176;11.792;2022-10-16T13:01:26;26.40;99.90
2657;DHT22;1338;48.176;11.792;2022-10-16T13:04:15;25.60;99.90
2657;DHT22;1338;48.176;11.792;2022-10-16T13:06:53;25.20;99.90
2657;DHT22;1338;48.176;11.792;2022-10-16T13:09:37;25.80;99.90
2657;DHT22;1338;48.176;11.792;2022-10-16T13:12:21;27.30;99.90
2657;DHT22;1338;48.176;11.792;2022-10-16T13:15:19;27.70;99.90
2657;DHT22;1338;48.176;11.792;2022-10-16T13:17:56;28.50;99.90
2657;DHT22;1338;48.176;11.792;2022-10-16T13:20:31;28.70;99.90
2657;DHT22;1338;48.176;11.792;2022-10-16T13:23:10;28.90;99.90
2657;DHT22;1338;48.176;11.792;2022-10-16T13:25:49;28.90;99.90
2657;DHT22;1338;48.176;11.792;2022-10-16T13:28:21;29.20;99.90
2657;DHT22;1338;48.176;11.792;2022-10-16T13:30:52;29.00;99.90
2657;DHT22;1338;48.176;11.792;2022-10-16T13:33:30;29.40;99.90
2657;DHT22;1338;48.176;11.792;2022-10-16T13:35:59;30.10;99.90
2657;DHT22;1338;48.176;11.792;2022-10-16T13:38:29;28.00;99.90
2657;DHT22;1338;48.176;11.792;2022-10-16T13:41:00;28.90;99.90
2657;DHT22;1338;48.176;11.792;2022-10-16T13:43:32;29.70;99.90
2657;DHT22;1338;48.176;11.792;2022-10-16T13:46:04;29.40;99.90
2657;DHT22;1338;48.176;11.792;2022-10-16T13:48:34;29.10;99.90
2657;DHT22;1338;48.176;11.792;2022-10-16T13:51:04;30.00;99.90
2657;DHT22;1338;48.176;11.792;2022-10-16T13:53:34;27.30;99.90
2657;DHT22;1338;48.176;11.792;2022-10-16T13:56:04;26.60;99.90
2657;DHT22;1338;48.176;11.792;2022-10-16T13:58:33;25.80;99.90
2657;DHT22;1338;48.176;11.792;2022-10-16T14:01:03;28.10;99.90
2657;DHT22;1338;48.176;11.792;2022-10-16T14:03:34;29.10;99.90
2657;DHT22;1338;48.176;11.792;2022-10-16T14:06:05;26.90;99.90
2657;DHT22;1338;48.176;11.792;2022-10-16T14:08:35;27.60;99.90
2657;DHT22;1338;48.176;11.792;2022-10-16T14:11:03;27.70;99.90
2657;DHT22;1338;48.176;11.792;2022-10-16T14:13:36;27.10;99.90
2657;DHT22;1338;48.176;11.792;2022-10-16T14:16:07;27.60;99.90
2657;DHT22;1338;48.176;11.792;2022-10-16T14:18:38;25.90;99.90
2657;DHT22;1338;48.176;11.792;2022-10-16T14:21:12;25.70;99.90
2657;DHT22;1338;48.176;11.792;2022-10-16T14:23:42;25.60;99.90
2657;DHT22;1338;48.176;11.792;2022-10-16T14:26:16;26.20;99.90
2657;DHT22;1338;48.176;11.792;2022-10-16T14:28:45;26.10;99.90
2657;DHT22;1338;48.176;11.792;2022-10-16T14:31:28;27.40;99.90
2657;DHT22;1338;48.176;11.792;2022-10-16T14:33:59;27.50;99.90
2657;DHT22;1338;48.176;11.792;2022-10-16T14:36:28;27.20;99.90
2657;DHT22;1338;48.176;11.792;2022-10-16T14:39:02;26.90;99.90
2657;DHT22;1338;48.176;11.792;2022-10-16T14:41:32;26.10;99.90
2657;DHT22;1338;48.176;11.792;2022-10-16T14:44:02;27.90;99.90
2657;DHT22;1338;48.176;11.792;2022-10-16T14:46:35;28.10;99.90
2657;DHT22;1338;48.176;11.792;2022-10-16T14:49:17;28.20;99.90
2657;DHT22;1338;48.176;11.792;2022-10-16T14:51:47;29.10;99.90
2657;DHT22;1338;48.176;11.792;2022-10-16T14:54:16;28.60;99.90
2657;DHT22;1338;48.176;11.792;2022-10-16T14:56:50;28.10;99.90
2657;DHT22;1338;48.176;11.792;2022-10-16T14:59:22;28.10;99.90
2657;DHT22;1338;48.176;11.792;2022-10-16T15:01:52;26.70;99.90
2657;DHT22;1338;48.176;11.792;2022-10-16T15:04:22;26.00;99.90
2657;DHT22;1338;48.176;11.792;2022-10-16T15:06:50;25.50;99.90
2657;DHT22;1338;48.176;11.792;2022-10-16T15:09:18;25.60;99.90
2657;DHT22;1338;48.176;11.792;2022-10-16T15:11:46;25.40;99.90
2657;DHT22;1338;48.176;11.792;2022-10-16T15:14:14;25.10;99.90
2657;DHT22;1338;48.176;11.792;2022-10-16T15:16:42;25.10;99.90
2657;DHT22;1338;48.176;11.792;2022-10-16T15:19:10;24.90;99.90
2657;DHT22;1338;48.176;11.792;2022-10-16T15:21:40;25.10;99.90
2657;DHT22;1338;48.176;11.792;2022-10-16T15:24:11;25.00;99.90
2657;DHT22;1338;48.176;11.792;2022-10-16T15:26:45;24.80;99.90
2657;DHT22;1338;48.176;11.792;2022-10-16T15:29:13;24.80;99.90
2657;DHT22;1338;48.176;11.792;2022-10-16T15:31:41;24.60;99.90
2657;DHT22;1338;48.176;11.792;2022-10-16T15:34:10;24.40;99.90
2657;DHT22;1338;48.176;11.792;2022-10-16T15:36:41;24.30;99.90
2657;DHT22;1338;48.176;11.792;2022-10-16T15:39:14;24.10;99.90
2657;DHT22;1338;48.176;11.792;2022-10-16T15:41:44;24.10;99.90
2657;DHT22;1338;48.176;11.792;2022-10-16T15:44:14;24.00;99.90
2657;DHT22;1338;48.176;11.792;2022-10-16T15:46:42;23.90;99.90
2657;DHT22;1338;48.176;11.792;2022-10-16T15:49:11;23.60;99.90
2657;DHT22;1338;48.176;11.792;2022-10-16T15:51:42;23.40;99.90
2657;DHT22;1338;48.176;11.792;2022-10-16T15:54:10;23.10;99.90
2657;DHT22;1338;48.176;11.792;2022-10-16T15:56:38;23.00;99.90
2657;DHT22;1338;48.176;11.792;2022-10-16T15:59:06;22.90;99.90
2657;DHT22;1338;48.176;11.792;2022-10-16T16:01:35;22.70;99.90
2657;DHT22;1338;48.176;11.792;2022-10-16T16:04:03;22.60;99.90
2657;DHT22;1338;48.176;11.792;2022-10-16T16:06:47;22.50;99.90
2657;DHT22;1338;48.176;11.792;2022-10-16T16:09:15;22.30;99.90
2657;DHT22;1338;48.176;11.792;2022-10-16T16:11:43;22.30;99.90
2657;DHT22;1338;48.176;11.792;2022-10-16T16:14:13;22.30;99.90
2657;DHT22;1338;48.176;11.792;2022-10-16T16:16:41;22.10;99.90
2657;DHT22;1338;48.176;11.792;2022-10-16T16:19:09;22.00;99.90
2657;DHT22;1338;48.176;11.792;2022-10-16T16:21:38;21.90;99.90
2657;DHT22;1338;48.176;11.792;2022-10-16T16:24:07;21.80;99.90
2657;DHT22;1338;48.176;11.792;2022-10-16T16:26:36;21.80;99.90
2657;DHT22;1338;48.176;11.792;2022-10-16T16:29:06;21.60;99.90
2657;DHT22;1338;48.176;11.792;2022-10-16T16:31:35;21.50;99.90
2657;DHT22;1338;48.176;11.792;2022-10-16T16:34:03;21.50;99.90